Time;durP1;ratioP1;P1;durP2;ratioP2;P2;SDS_P1;SDS_P2;PMS_P1;PMS_P2;Temp;Humidity;BMP_temperature;BMP_pressure;BME280_temperature;BME280_humidity;BME280_pressure;Samples;Min_cycle;Max_cycle;Signal;HPM_P1;HPM_P2
2021/05/03 00:00:09;;;;;;;31.52;12.40;;;;;;;13.38;100.00;98284.36;1793650;80;20985;-68
2021/05/03 00:02:37;;;;;;;18.65;11.65;;;;;;;13.37;100.00;98287.48;1793550;80;20980;-68
2021/05/03 00:05:08;;;;;;;17.87;11.53;;;;;;;13.37;100.00;98289.66;1793539;80;20969;-68
2021/05/03 00:07:35;;;;;;;16.90;9.93;;;;;;;13.35;100.00;98291.98;1793520;80;21415;-68
2021/05/03 00:10:04;;;;;;;15.13;9.80;;;;;;;13.32;100.00;98293.29;1793564;78;21547;-68
2021/05/03 00:12:33;;;;;;;17.50;8.75;;;;;;;13.30;100.00;98291.48;1793535;80;20886;-67
2021/05/03 00:15:03;;;;;;;14.78;8.68;;;;;;;13.28;100.00;98296.58;1793459;80;20933;-67
2021/05/03 00:17:31;;;;;;;9.80;6.92;;;;;;;13.21;100.00;98293.11;1793671;80;20969;-67
2021/05/03 00:20:00;;;;;;;14.55;6.22;;;;;;;13.14;97.03;98297.86;1793564;80;22286;-67
2021/05/03 00:22:27;;;;;;;16.42;6.50;;;;;;;13.12;94.45;98296.05;1793485;80;21012;-67
2021/05/03 00:24:57;;;;;;;11.30;5.40;;;;;;;13.10;93.68;98304.45;1793576;80;20981;-67
2021/05/03 00:27:25;;;;;;;9.10;5.08;;;;;;;13.07;91.14;98298.30;1793502;80;20981;-68
2021/05/03 00:29:54;;;;;;;9.33;5.65;;;;;;;13.03;90.35;98300.97;1793557;80;21515;-68
2021/05/03 00:32:22;;;;;;;10.08;5.08;;;;;;;12.94;89.28;98301.77;1793554;80;21281;-68
2021/05/03 00:34:52;;;;;;;7.65;4.53;;;;;;;12.88;88.64;98303.20;1793538;80;21063;-68
2021/05/03 00:37:20;;;;;;;10.48;5.28;;;;;;;12.81;88.17;98306.60;1793524;80;21079;-69
2021/05/03 00:39:48;;;;;;;8.53;4.90;;;;;;;12.74;87.69;98307.02;1793538;80;21043;-68
2021/05/03 00:42:16;;;;;;;8.45;5.12;;;;;;;12.68;87.53;98315.38;1793575;80;20946;-68
2021/05/03 00:44:44;;;;;;;8.18;4.78;;;;;;;12.63;87.87;98312.90;1793291;80;21197;-67
2021/05/03 00:47:12;;;;;;;6.58;5.22;;;;;;;12.55;87.94;98322.38;1787686;79;20933;-67
2021/05/03 00:49:41;;;;;;;7.17;5.28;;;;;;;12.48;88.11;98324.16;1733384;80;21555;-68
2021/05/03 00:52:11;;;;;;;8.28;4.95;;;;;;;12.42;88.39;98330.52;1787681;80;20921;-68
2021/05/03 00:54:40;;;;;;;8.18;5.50;;;;;;;12.37;88.55;98330.78;1787707;80;20906;-68
2021/05/03 00:57:08;;;;;;;7.55;4.80;;;;;;;12.31;88.76;98332.20;1787746;80;22280;-68
2021/05/03 00:59:36;;;;;;;8.55;5.47;;;;;;;12.27;88.88;98332.70;1757605;80;20934;-68
2021/05/03 01:02:04;;;;;;;8.10;5.03;;;;;;;12.20;89.05;98332.52;1787721;80;21618;-67
2021/05/03 01:04:31;;;;;;;8.33;5.40;;;;;;;12.15;89.24;98346.55;1787618;80;20913;-68
2021/05/03 01:06:59;;;;;;;9.30;5.00;;;;;;;12.09;89.40;98346.62;1787710;80;21456;-67
2021/05/03 01:09:27;;;;;;;10.18;5.00;;;;;;;12.04;89.64;98364.19;1787688;80;21240;-68
2021/05/03 01:11:56;;;;;;;6.70;5.25;;;;;;;12.00;89.81;98359.74;1760022;80;21571;-68
2021/05/03 01:14:24;;;;;;;13.88;5.45;;;;;;;11.94;90.23;98359.20;1756392;80;21005;-68
2021/05/03 01:16:52;;;;;;;10.28;5.80;;;;;;;11.89;90.69;98354.77;1756487;81;20933;-68
2021/05/03 01:19:21;;;;;;;10.43;5.30;;;;;;;11.86;90.90;98350.55;1756532;81;21488;-69
2021/05/03 01:21:49;;;;;;;8.75;5.70;;;;;;;11.82;91.22;98353.20;1756596;81;22272;-68
2021/05/03 01:24:17;;;;;;;8.20;5.65;;;;;;;11.79;91.85;98357.23;1756449;81;20973;-69
2021/05/03 01:26:46;;;;;;;7.97;5.12;;;;;;;11.75;92.08;98352.98;1756504;80;21095;-68
2021/05/03 01:29:15;;;;;;;9.53;6.00;;;;;;;11.72;92.23;98353.68;1756585;81;21599;-69
2021/05/03 01:31:47;;;;;;;10.58;5.45;;;;;;;11.70;92.27;98360.11;1756533;81;21052;-68
2021/05/03 01:34:16;;;;;;;6.35;5.10;;;;;;;11.68;92.12;98359.66;1756539;81;21363;-69
2021/05/03 01:36:45;;;;;;;9.98;6.05;;;;;;;11.68;92.03;98356.91;1756453;81;21031;-68
2021/05/03 01:39:15;;;;;;;11.28;5.47;;;;;;;11.67;91.89;98363.56;1756477;81;20938;-69
2021/05/03 01:41:43;;;;;;;10.20;5.70;;;;;;;11.67;91.90;98373.75;1756505;81;20945;-69
2021/05/03 01:44:15;;;;;;;9.13;5.17;;;;;;;11.63;91.95;98380.53;1756549;81;20881;-69
2021/05/03 01:46:44;;;;;;;9.28;5.83;;;;;;;11.61;92.08;98384.77;1756395;81;20984;-69
2021/05/03 01:49:12;;;;;;;8.50;5.78;;;;;;;11.56;92.32;98379.75;1727187;81;20949;-70
2021/05/03 01:51:39;;;;;;;8.25;5.78;;;;;;;11.53;92.59;98381.86;1756463;81;20937;-69
2021/05/03 01:54:08;;;;;;;10.63;5.72;;;;;;;11.50;92.85;98379.02;1756471;81;21143;-68
2021/05/03 01:56:36;;;;;;;12.50;6.42;;;;;;;11.46;92.97;98381.66;1756502;80;21123;-68
2021/05/03 01:59:06;;;;;;;10.20;6.42;;;;;;;11.41;93.24;98381.10;1756474;81;21202;-68
2021/05/03 02:01:38;;;;;;;11.38;6.75;;;;;;;11.37;93.54;98377.45;1756519;81;21179;-68
2021/05/03 02:04:09;;;;;;;12.18;6.22;;;;;;;11.34;93.89;98382.27;1756426;81;21602;-68
2021/05/03 02:06:37;;;;;;;10.43;6.03;;;;;;;11.29;94.12;98379.20;1756457;81;21020;-68
2021/05/03 02:09:09;;;;;;;8.80;5.55;;;;;;;11.25;94.21;98385.16;1756504;81;21143;-69
2021/05/03 02:11:37;;;;;;;8.60;5.53;;;;;;;11.21;94.58;98387.80;1756636;81;21356;-68
2021/05/03 02:14:05;;;;;;;7.47;5.80;;;;;;;11.19;94.91;98385.17;1756443;81;21559;-68
2021/05/03 02:16:33;;;;;;;6.95;5.40;;;;;;;11.16;94.84;98389.41;1756430;80;21063;-69
2021/05/03 02:19:00;;;;;;;12.37;6.55;;;;;;;11.13;94.79;98396.98;1756421;80;20901;-69
2021/05/03 02:21:28;;;;;;;7.58;5.20;;;;;;;11.10;94.82;98396.30;1756476;81;20878;-69
2021/05/03 02:23:56;;;;;;;7.72;3.90;;;;;;;11.04;94.54;98388.07;1756456;81;22346;-68
2021/05/03 02:26:23;;;;;;;7.42;4.10;;;;;;;11.00;94.11;98392.66;1756366;81;21036;-68
2021/05/03 02:28:51;;;;;;;6.65;3.95;;;;;;;10.92;92.58;98390.87;1756423;81;21084;-68
2021/05/03 02:31:20;;;;;;;6.78;3.35;;;;;;;10.87;90.89;98400.14;1756551;81;21084;-68
2021/05/03 02:33:47;;;;;;;7.75;2.87;;;;;;;10.81;87.99;98406.20;1756650;81;21156;-68
2021/05/03 02:36:15;;;;;;;4.08;2.90;;;;;;;10.76;87.19;98417.42;1756629;81;21265;-68
2021/05/03 02:38:44;;;;;;;5.30;2.90;;;;;;;10.69;85.88;98422.68;1756547;81;20962;-68
2021/05/03 02:41:12;;;;;;;4.65;2.95;;;;;;;10.62;84.78;98427.94;1756605;81;21089;-68
2021/05/03 02:43:41;;;;;;;4.83;3.00;;;;;;;10.54;84.35;98440.06;1756579;81;21072;-68
2021/05/03 02:46:08;;;;;;;3.22;2.60;;;;;;;10.50;84.37;98435.59;1757984;81;21468;-68
2021/05/03 02:48:36;;;;;;;4.15;2.87;;;;;;;10.43;84.36;98437.53;1762292;80;21259;-68
2021/05/03 02:51:05;;;;;;;4.95;3.10;;;;;;;10.37;84.73;98443.04;1762221;81;21120;-69
2021/05/03 02:53:34;;;;;;;9.38;4.22;;;;;;;10.31;85.82;98452.63;1762347;81;21559;-69
2021/05/03 02:56:02;;;;;;;4.70;3.85;;;;;;;10.24;87.81;98468.84;1762302;81;21487;-69
2021/05/03 02:58:29;;;;;;;5.30;3.67;;;;;;;10.15;88.05;98466.73;1762243;81;20952;-68
2021/05/03 03:00:57;;;;;;;11.70;4.00;;;;;;;10.07;88.33;98477.22;1762259;81;21466;-68
2021/05/03 03:03:25;;;;;;;4.15;3.12;;;;;;;9.94;88.29;98475.80;1762202;81;21554;-68
2021/05/03 03:05:53;;;;;;;5.92;3.50;;;;;;;9.80;87.71;98478.63;1762191;81;20933;-68
2021/05/03 03:08:21;;;;;;;5.35;3.58;;;;;;;9.67;87.28;98485.98;1777678;78;21508;-68
2021/05/03 03:10:48;;;;;;;6.05;3.20;;;;;;;9.55;87.45;98479.08;1764675;80;20969;-68
2021/05/03 03:13:16;;;;;;;7.65;3.00;;;;;;;9.43;86.93;98477.06;1762243;81;21205;-68
2021/05/03 03:15:44;;;;;;;4.05;2.60;;;;;;;9.36;87.22;98487.75;1762125;80;21599;-68
2021/05/03 03:18:12;;;;;;;10.20;3.17;;;;;;;9.30;87.38;98484.17;1762317;80;20921;-69
2021/05/03 03:20:41;;;;;;;4.45;3.00;;;;;;;9.24;87.47;98487.11;1762243;81;20972;-68
2021/05/03 03:23:09;;;;;;;5.30;2.90;;;;;;;9.18;87.65;98492.58;1762236;81;21043;-68
2021/05/03 03:25:37;;;;;;;4.28;2.60;;;;;;;9.16;87.22;98498.14;1762116;81;22026;-68
2021/05/03 03:28:04;;;;;;;5.50;2.65;;;;;;;9.09;86.51;98512.36;1762173;81;21603;-69
2021/05/03 03:30:32;;;;;;;5.72;2.90;;;;;;;9.05;86.05;98521.56;1762227;81;20925;-68
2021/05/03 03:33:00;;;;;;;4.95;2.70;;;;;;;8.99;85.90;98526.42;1734720;81;21523;-69
2021/05/03 03:35:29;;;;;;;4.12;2.15;;;;;;;8.96;86.26;98527.08;1762187;81;21006;-69
2021/05/03 03:37:57;;;;;;;4.42;2.77;;;;;;;8.90;85.57;98539.34;1761665;80;21202;-69
2021/05/03 03:40:25;;;;;;;6.20;2.60;;;;;;;8.86;85.71;98537.02;1774698;80;21072;-69
2021/05/03 03:42:53;;;;;;;7.30;2.40;;;;;;;8.84;85.85;98531.88;1791584;80;20929;-69
2021/05/03 03:45:20;;;;;;;6.17;1.87;;;;;;;8.86;84.17;98552.08;1791489;80;21083;-69
2021/05/03 03:47:48;;;;;;;2.95;1.60;;;;;;;8.85;80.66;98538.95;1786737;79;21056;-69
2021/05/03 03:50:16;;;;;;;1.98;1.30;;;;;;;8.83;76.49;98539.05;1778952;78;22374;-69
2021/05/03 03:52:43;;;;;;;1.60;1.50;;;;;;;8.79;74.62;98564.09;1770074;80;21913;-68
2021/05/03 03:55:12;;;;;;;4.62;1.80;;;;;;;8.75;74.19;98563.95;1764182;80;21513;-68
2021/05/03 03:57:41;;;;;;;2.25;1.70;;;;;;;8.72;73.58;98569.27;1787268;80;21505;-69
2021/05/03 04:00:10;;;;;;;2.52;1.50;;;;;;;8.71;74.12;98564.92;1787464;80;21052;-68
2021/05/03 04:02:39;;;;;;;2.37;1.67;;;;;;;8.69;74.68;98565.25;1783289;80;21244;-69
2021/05/03 04:08:06;;;;;;;7.85;1.52;;;;;;;8.74;74.69;98589.70;1890030;75;22392;-67
2021/05/03 04:26:48;;;;;;;2.52;1.37;;;;;;;8.78;72.14;98609.01;1909736;74;22717;-69
2021/05/03 04:29:15;;;;;;;1.67;1.30;;;;;;;8.76;72.01;98612.07;1849791;77;20920;-69
2021/05/03 04:31:43;;;;;;;1.80;1.30;;;;;;;8.79;73.10;98622.36;1849901;77;21350;-69
2021/05/03 04:34:12;;;;;;;2.02;1.05;;;;;;;8.88;73.37;98636.02;1849734;77;20999;-68
2021/05/03 04:36:39;;;;;;;5.62;1.12;;;;;;;8.89;71.11;98631.59;1846886;76;21019;-69
2021/05/03 04:39:07;;;;;;;1.62;1.17;;;;;;;8.82;70.77;98645.54;1841098;77;21550;-69
2021/05/03 04:41:36;;;;;;;2.98;1.15;;;;;;;8.74;70.99;98640.89;1849810;77;21462;-68
2021/05/03 04:44:05;;;;;;;3.90;1.40;;;;;;;8.69;71.50;98635.02;1849778;77;21561;-68
2021/05/03 04:46:32;;;;;;;2.27;1.30;;;;;;;8.72;72.05;98636.30;1849752;77;21562;-68
2021/05/03 04:49:00;;;;;;;3.17;1.40;;;;;;;8.80;72.68;98645.06;1849661;77;21604;-68
2021/05/03 04:51:28;;;;;;;1.98;1.32;;;;;;;8.89;71.98;98652.13;1827064;77;21054;-68
2021/05/03 04:53:57;;;;;;;1.87;1.10;;;;;;;8.99;71.45;98646.86;1820199;78;21176;-68
2021/05/03 04:56:25;;;;;;;1.70;1.02;;;;;;;9.06;70.72;98644.99;1820215;78;21387;-68
2021/05/03 04:58:53;;;;;;;2.70;1.30;;;;;;;9.07;70.54;98636.45;1821735;76;21529;-68
2021/05/03 05:01:21;;;;;;;1.80;1.20;;;;;;;9.08;69.83;98638.63;1766116;80;21002;-68
2021/05/03 05:03:51;;;;;;;2.40;1.10;;;;;;;9.11;70.18;98629.19;1835176;77;21481;-68
2021/05/03 05:06:19;;;;;;;1.40;0.95;;;;;;;9.14;69.65;98626.36;1816435;79;21072;-68
2021/05/03 05:08:47;;;;;;;1.42;1.07;;;;;;;9.18;69.60;98624.01;1816419;79;21321;-68
2021/05/03 05:11:16;;;;;;;1.80;1.00;;;;;;;9.20;68.99;98618.20;1817534;76;20898;-68
2021/05/03 05:13:44;;;;;;;1.57;1.00;;;;;;;9.25;68.86;98627.01;1828349;76;21050;-68
2021/05/03 05:16:11;;;;;;;1.30;1.00;;;;;;;9.29;68.15;98613.46;1859690;76;21029;-69
2021/05/03 05:18:40;;;;;;;1.55;1.02;;;;;;;9.30;67.81;98626.59;1850114;77;21163;-68
2021/05/03 05:21:07;;;;;;;4.60;1.02;;;;;;;9.31;68.49;98635.84;1851088;77;21213;-68
2021/05/03 05:23:35;;;;;;;2.15;0.95;;;;;;;9.34;67.56;98633.81;1851550;76;21156;-68
2021/05/03 05:26:03;;;;;;;1.75;1.10;;;;;;;9.36;67.01;98639.77;1854392;77;20982;-68
2021/05/03 05:28:31;;;;;;;3.60;1.35;;;;;;;9.40;67.83;98630.33;1858792;77;21549;-68
2021/05/03 05:30:59;;;;;;;2.62;1.30;;;;;;;9.43;68.00;98633.21;1853355;76;20922;-71
2021/05/03 05:33:26;;;;;;;1.22;1.00;;;;;;;9.47;67.54;98629.24;1850256;77;21420;-69
2021/05/03 05:35:54;;;;;;;5.05;1.10;;;;;;;9.53;67.70;98637.52;1849553;77;21540;-69
2021/05/03 05:38:21;;;;;;;1.47;0.90;;;;;;;9.60;68.33;98641.91;1849427;77;20962;-66
2021/05/03 05:40:49;;;;;;;1.12;0.82;;;;;;;9.68;66.58;98650.65;1853529;76;21346;-70
2021/05/03 05:43:17;;;;;;;2.15;0.68;;;;;;;9.70;66.90;98649.75;1790769;80;21057;-67
2021/05/03 05:45:46;;;;;;;1.87;0.90;;;;;;;9.75;66.63;98657.78;1790682;80;21152;-68
2021/05/03 05:48:14;;;;;;;1.32;0.85;;;;;;;9.79;66.09;98661.47;1790906;80;21029;-68
2021/05/03 05:50:42;;;;;;;4.03;0.80;;;;;;;9.80;65.95;98656.22;1823100;78;21057;-68
2021/05/03 05:53:10;;;;;;;1.50;0.90;;;;;;;9.85;64.75;98657.37;1792614;79;21001;-68
2021/05/03 05:55:37;;;;;;;1.70;0.98;;;;;;;9.90;65.45;98654.44;1806799;78;21548;-68
2021/05/03 05:58:05;;;;;;;1.15;0.80;;;;;;;9.96;65.12;98656.41;1798906;79;21306;-68
2021/05/03 06:00:33;;;;;;;2.77;0.70;;;;;;;9.99;65.34;98646.16;1816745;78;20978;-69
2021/05/03 06:03:01;;;;;;;1.65;0.78;;;;;;;10.04;66.15;98666.52;1788633;79;20934;-68
2021/05/03 06:05:30;;;;;;;1.50;1.00;;;;;;;10.17;64.23;98671.52;1795707;78;21538;-68
2021/05/03 06:07:57;;;;;;;3.72;0.90;;;;;;;10.30;63.69;98675.16;1812525;78;21129;-69
2021/05/03 06:10:24;;;;;;;1.47;0.85;;;;;;;10.35;63.09;98674.95;1792662;78;21212;-68
2021/05/03 06:12:53;;;;;;;1.92;0.70;;;;;;;10.39;64.13;98690.98;1789280;79;21167;-68
2021/05/03 06:15:21;;;;;;;1.50;0.75;;;;;;;10.41;63.21;98683.99;1786888;79;21176;-68
2021/05/03 06:17:50;;;;;;;2.37;0.95;;;;;;;10.48;64.51;98687.00;1806156;79;21109;-69
2021/05/03 06:20:17;;;;;;;5.92;1.10;;;;;;;10.59;64.39;98684.66;1792647;78;21181;-70
2021/05/03 06:22:45;;;;;;;1.35;1.00;;;;;;;10.66;63.38;98695.09;1772671;81;21138;-70
2021/05/03 06:25:13;;;;;;;1.77;1.10;;;;;;;10.70;62.58;98694.66;1791925;78;21611;-68
2021/05/03 06:27:40;;;;;;;2.55;1.00;;;;;;;10.69;62.82;98693.84;1822781;77;21180;-68
2021/05/03 06:30:10;;;;;;;2.83;0.90;;;;;;;10.73;63.17;98696.16;1797568;78;21152;-70
2021/05/03 06:32:37;;;;;;;1.92;1.10;;;;;;;10.84;63.63;98706.95;1819814;78;21596;-67
2021/05/03 06:35:07;;;;;;;2.80;1.00;;;;;;;10.98;62.80;98705.83;1820045;77;21185;-68
2021/05/03 06:37:34;;;;;;;1.70;0.93;;;;;;;11.06;62.17;98707.11;1806769;78;21030;-67
2021/05/03 06:40:02;;;;;;;2.15;0.75;;;;;;;11.07;60.83;98712.03;1801756;78;21077;-70
2021/05/03 06:42:29;;;;;;;1.30;0.80;;;;;;;11.05;62.17;98711.00;1801774;78;21582;-70
2021/05/03 06:44:57;;;;;;;3.80;1.00;;;;;;;11.17;61.99;98720.65;1801698;78;21166;-67
2021/05/03 06:47:26;;;;;;;2.62;1.02;;;;;;;11.30;61.56;98724.80;1793514;78;21202;-69
2021/05/03 06:49:54;;;;;;;3.00;0.75;;;;;;;11.31;60.52;98725.03;1797047;78;21182;-67
2021/05/03 06:52:22;;;;;;;1.82;0.98;;;;;;;11.19;60.30;98718.37;1796015;78;21106;-67
2021/05/03 06:54:50;;;;;;;1.40;0.90;;;;;;;11.06;60.62;98704.94;1813441;78;21021;-68
2021/05/03 06:57:19;;;;;;;0.50;0.50;;;;;;;10.98;61.74;98721.73;1801677;78;21113;-69
2021/05/03 06:59:46;;;;;;;2.60;0.70;;;;;;;11.00;60.85;98718.65;1803373;78;22320;-75
2021/05/03 07:02:14;;;;;;;1.35;0.65;;;;;;;10.99;60.03;98721.96;1811673;79;20983;-70
2021/05/03 07:04:43;;;;;;;1.35;0.72;;;;;;;10.83;60.03;98724.56;1812009;78;21113;-76
2021/05/03 07:07:11;;;;;;;2.05;1.00;;;;;;;10.76;60.95;98727.62;1811879;79;21148;-77
2021/05/03 07:09:39;;;;;;;1.15;0.72;;;;;;;10.84;61.55;98723.42;1812000;79;20939;-71
2021/05/03 07:12:09;;;;;;;2.87;0.80;;;;;;;11.01;61.67;98722.43;1812027;78;21190;-77
2021/05/03 07:14:38;;;;;;;1.22;0.90;;;;;;;11.22;61.20;98742.98;1785508;79;21880;-77
2021/05/03 07:17:06;;;;;;;1.47;0.78;;;;;;;11.40;60.89;98741.66;1811978;79;21066;-74
2021/05/03 07:19:36;;;;;;;1.00;0.78;;;;;;;11.52;58.59;98742.25;1811575;79;21018;-73
2021/05/03 07:22:05;;;;;;;8.45;1.57;;;;;;;11.58;60.38;98753.23;1812013;79;21006;-76
2021/05/03 07:24:33;;;;;;;9.40;0.95;;;;;;;11.64;58.43;98741.44;1803791;78;22275;-72
2021/05/03 07:27:01;;;;;;;1.25;1.02;;;;;;;11.60;58.21;98748.19;1795695;78;21164;-71
2021/05/03 07:29:30;;;;;;;2.00;0.72;;;;;;;11.50;58.16;98749.47;1784739;80;20927;-72
2021/05/03 07:31:58;;;;;;;12.58;1.20;;;;;;;11.42;57.99;98757.81;1787751;79;21156;-72
2021/05/03 07:34:26;;;;;;;2.10;0.98;;;;;;;11.32;58.56;98760.98;1785029;80;20920;-74
2021/05/03 07:36:53;;;;;;;2.05;1.05;;;;;;;11.27;57.35;98766.69;1784957;80;21405;-71
2021/05/03 07:39:21;;;;;;;1.27;0.90;;;;;;;11.38;57.70;98763.75;1784808;80;21101;-72
2021/05/03 07:41:49;;;;;;;2.17;0.82;;;;;;;11.64;56.82;98769.73;1746333;82;21462;-70
2021/05/03 07:44:19;;;;;;;4.62;0.72;;;;;;;11.70;55.72;98755.20;1784994;80;20895;-72
2021/05/03 07:46:47;;;;;;;1.62;0.82;;;;;;;11.71;55.47;98756.23;1784852;79;21478;-72
2021/05/03 07:49:15;;;;;;;2.35;1.05;;;;;;;11.77;57.46;98759.02;1733256;81;22647;-72
2021/05/03 07:51:43;;;;;;;4.80;1.07;;;;;;;11.96;54.55;98764.53;1724054;83;21006;-72
2021/05/03 07:54:15;;;;;;;1.98;0.90;;;;;;;12.02;55.71;98768.66;1723992;83;21592;-71
2021/05/03 07:56:43;;;;;;;9.55;1.07;;;;;;;12.07;55.42;98776.68;1726905;81;21018;-72
2021/05/03 07:59:11;;;;;;;1.25;0.90;;;;;;;12.26;55.23;98766.44;1725710;83;21587;-72
2021/05/03 08:01:39;;;;;;;2.67;0.82;;;;;;;12.46;54.29;98763.55;1755664;81;21414;-71
2021/05/03 08:04:07;;;;;;;2.65;1.10;;;;;;;12.53;54.08;98774.78;1755691;81;21528;-72
2021/05/03 08:06:34;;;;;;;3.77;1.42;;;;;;;12.58;54.24;98773.73;1755709;81;20994;-72
2021/05/03 08:09:05;;;;;;;1.30;0.70;;;;;;;12.62;54.60;98774.65;1755641;81;21595;-72
2021/05/03 08:11:33;;;;;;;0.82;0.60;;;;;;;12.60;51.87;98761.80;1755865;81;20962;-72
2021/05/03 08:14:02;;;;;;;1.47;0.80;;;;;;;12.72;53.05;98752.10;1755660;81;21377;-72
2021/05/03 08:16:32;;;;;;;5.08;0.80;;;;;;;13.08;52.27;98750.37;1755647;81;21513;-73
2021/05/03 08:18:59;;;;;;;1.70;1.25;;;;;;;13.39;51.67;98762.85;1755774;81;21572;-71
2021/05/03 08:21:29;;;;;;;4.97;0.90;;;;;;;13.63;50.64;98759.15;1754034;81;20939;-70
2021/05/03 08:23:57;;;;;;;5.42;1.15;;;;;;;13.78;50.17;98759.73;1755411;81;20931;-72
2021/05/03 08:26:25;;;;;;;1.30;0.88;;;;;;;13.83;49.72;98774.64;1765259;79;21216;-73
2021/05/03 08:28:54;;;;;;;1.62;1.00;;;;;;;13.65;48.91;98770.62;1806570;79;20978;-71
2021/05/03 08:31:21;;;;;;;4.50;1.10;;;;;;;13.49;50.53;98762.91;1825359;78;20959;-72
2021/05/03 08:33:49;;;;;;;7.90;0.80;;;;;;;13.38;50.54;98772.27;1806463;79;21053;-76
2021/05/03 08:36:18;;;;;;;3.33;0.80;;;;;;;13.19;49.96;98778.48;1825475;78;21144;-72
2021/05/03 08:38:45;;;;;;;1.47;0.80;;;;;;;13.25;51.12;98785.12;1806477;79;22344;-75
2021/05/03 08:41:14;;;;;;;1.67;1.00;;;;;;;13.37;49.11;98778.14;1825312;78;21013;-73
2021/05/03 08:43:43;;;;;;;1.22;1.00;;;;;;;13.39;48.75;98781.34;1797229;79;21121;-74
2021/05/03 08:46:15;;;;;;;2.58;1.10;;;;;;;13.20;47.96;98779.28;1780493;79;21619;-71
2021/05/03 08:48:57;;;;;;;3.83;1.20;;;;;;;13.04;49.19;98774.27;1793142;79;21171;-71
2021/05/03 08:51:29;;;;;;;1.22;1.00;;;;;;;13.07;48.33;98771.61;1825624;78;21271;-71
2021/05/03 08:53:55;;;;;;;2.95;1.70;;;;;;;13.32;48.42;98772.30;1791980;79;21497;-73
2021/05/03 08:56:15;;;;;;;7.60;1.40;;;;;;;13.73;49.09;98761.38;1824423;78;21128;-74
2021/05/03 08:58:43;;;;;;;2.10;1.15;;;;;;;14.22;48.62;98767.88;1775702;79;21013;-73
2021/05/03 09:01:10;;;;;;;4.95;1.20;;;;;;;14.52;47.18;98744.13;1795882;78;21005;-74
2021/05/03 09:03:43;;;;;;;1.40;1.00;;;;;;;14.69;47.21;98770.53;1806423;79;21382;-75
2021/05/03 09:06:11;;;;;;;3.12;0.90;;;;;;;14.82;46.65;98755.42;1792841;80;21151;-74
2021/05/03 09:08:39;;;;;;;2.10;1.00;;;;;;;15.05;46.00;98764.34;1816125;78;21100;-74
2021/05/03 09:11:07;;;;;;;3.02;1.12;;;;;;;15.09;44.30;98767.98;1805392;79;21002;-74
2021/05/03 09:13:36;;;;;;;4.60;0.82;;;;;;;15.04;45.85;98763.55;1791277;78;21136;-76
2021/05/03 09:16:15;;;;;;;2.08;0.90;;;;;;;15.05;44.57;98761.00;1806470;79;21454;-77
2021/05/03 09:18:43;;;;;;;2.62;1.20;;;;;;;15.00;44.68;98772.38;1806310;79;21018;-80
2021/05/03 09:21:30;;;;;;;8.78;1.22;;;;;;;15.05;45.92;98772.05;1806531;79;21148;-76
2021/05/03 09:24:26;;;;;;;1.92;1.32;;;;;;;15.07;45.74;98769.73;1778913;79;21005;-75
2021/05/03 09:27:05;;;;;;;2.05;1.32;;;;;;;15.03;45.20;98761.95;1806072;79;21057;-78
2021/05/03 09:29:42;;;;;;;3.92;1.70;;;;;;;14.86;46.01;98765.97;1806404;79;21356;-77
2021/05/03 09:32:19;;;;;;;3.77;1.95;;;;;;;14.70;46.21;98767.98;1742790;80;21174;-77
2021/05/03 09:34:52;;;;;;;1.62;1.30;;;;;;;14.54;46.58;98768.03;1791962;78;21116;-83
2021/05/03 09:37:31;;;;;;;;;;;;;;;14.44;45.49;98782.40;1781555;79;21176;-74
2021/05/03 09:40:09;;;;;;;2.17;1.07;;;;;;;14.39;44.67;98790.95;1796478;79;20232;-73
2021/05/03 09:42:52;;;;;;;2.05;1.20;;;;;;;14.31;45.90;98794.71;1779609;79;21295;-72
2021/05/03 09:45:33;;;;;;;3.72;1.55;;;;;;;14.31;45.35;98793.91;1789650;79;20939;-72
2021/05/03 09:48:04;;;;;;;3.05;2.00;;;;;;;14.53;44.84;98796.02;1793618;78;21115;-72
2021/05/03 09:50:32;;;;;;;4.00;1.82;;;;;;;14.68;44.91;98799.90;1793665;78;21130;-73
2021/05/03 09:53:13;;;;;;;1.52;1.15;;;;;;;14.52;45.88;98806.26;1787857;79;21569;-72
2021/05/03 09:55:49;;;;;;;1.55;1.30;;;;;;;14.54;44.28;98812.80;1783827;80;21376;-73
2021/05/03 09:58:21;;;;;;;7.72;1.32;;;;;;;14.61;44.66;98834.27;1793260;79;21113;-72
2021/05/03 10:00:57;;;;;;;3.15;1.62;;;;;;;14.73;44.18;98825.28;1784217;79;21535;-73
2021/05/03 10:03:46;;;;;;;5.95;1.62;;;;;;;15.01;43.01;98834.78;1786799;79;21177;-73
2021/05/03 10:06:16;;;;;;;1.40;1.20;;;;;;;15.22;43.61;98828.88;1799397;79;21162;-73
2021/05/03 10:08:50;;;;;;;2.33;1.37;;;;;;;15.44;42.97;98823.99;1799958;78;22265;-73
2021/05/03 10:11:17;;;;;;;8.15;2.08;;;;;;;15.73;41.89;98823.16;1779832;79;21166;-73
2021/05/03 10:13:48;;;;;;;2.75;1.07;;;;;;;15.82;42.51;98820.37;1799825;78;21051;-74
2021/05/03 10:16:18;;;;;;;1.55;1.10;;;;;;;15.88;40.86;98819.48;1781411;79;21190;-74
2021/05/03 10:18:46;;;;;;;4.47;1.32;;;;;;;15.84;41.47;98818.63;1792172;78;21080;-74
2021/05/03 10:21:14;;;;;;;5.42;1.15;;;;;;;15.89;41.73;98830.77;1780044;78;23567;-74
2021/05/03 10:23:45;;;;;;;2.75;1.30;;;;;;;16.09;42.95;98828.16;1792611;80;21013;-74
2021/05/03 10:26:13;;;;;;;1.30;1.20;;;;;;;16.25;40.04;98832.74;1793135;79;21003;-74
2021/05/03 10:28:55;;;;;;;3.08;1.40;;;;;;;16.33;41.01;98837.23;1792439;79;21605;-74
2021/05/03 10:31:24;;;;;;;4.28;1.05;;;;;;;16.37;40.61;98797.34;1792244;80;21163;-73
2021/05/03 10:33:52;;;;;;;2.65;1.20;;;;;;;16.44;39.75;98822.97;1792638;80;21265;-74
2021/05/03 10:36:37;;;;;;;3.55;1.30;;;;;;;16.51;40.29;98826.64;1792761;80;21151;-74
2021/05/03 10:39:30;;;;;;;1.55;1.10;;;;;;;16.41;40.07;98827.28;1792642;80;21028;-74
2021/05/03 10:42:07;;;;;;;5.03;1.30;;;;;;;16.28;39.44;98834.19;1792654;80;21059;-73
2021/05/03 10:44:38;;;;;;;6.17;1.50;;;;;;;16.14;41.10;98833.39;1792695;80;21056;-73
2021/05/03 10:47:29;;;;;;;1.30;1.20;;;;;;;16.30;39.96;98838.77;1810092;78;21359;-72
2021/05/03 10:50:00;;;;;;;2.25;1.40;;;;;;;16.43;39.17;98831.86;1792541;80;20990;-74
2021/05/03 10:52:37;;;;;;;4.33;1.47;;;;;;;16.56;39.99;98828.30;1793078;80;20967;-73
2021/05/03 10:55:06;;;;;;;2.85;1.20;;;;;;;16.74;39.53;98836.91;1792516;80;21580;-72
2021/05/03 10:57:35;;;;;;;6.10;1.20;;;;;;;16.95;37.76;98842.73;1806909;78;21196;-73
2021/05/03 11:00:07;;;;;;;2.30;1.32;;;;;;;16.96;37.02;98845.72;1824866;78;21359;-73
2021/05/03 11:02:45;;;;;;;5.75;2.30;;;;;;;16.71;38.11;98823.22;1825085;78;21206;-72
2021/05/03 11:05:26;;;;;;;8.90;2.65;;;;;;;16.59;38.69;98840.02;1825035;78;21213;-71
2021/05/03 11:08:11;;;;;;;3.55;1.80;;;;;;;16.64;39.07;98835.58;1806241;79;20994;-72
2021/05/03 11:11:07;;;;;;;1.55;1.27;;;;;;;16.68;37.89;98832.86;1825100;78;21477;-72
2021/05/03 11:13:49;;;;;;;3.75;1.50;;;;;;;16.68;37.66;98838.41;1797076;79;21203;-72
2021/05/03 11:16:32;;;;;;;3.90;2.20;;;;;;;16.48;37.57;98845.40;1815932;78;21609;-72
2021/05/03 11:19:04;;;;;;;3.87;1.42;;;;;;;16.49;37.09;98828.19;1740263;80;21145;-72
2021/05/03 11:21:42;;;;;;;1.98;1.30;;;;;;;16.49;37.84;98824.03;1788816;80;21035;-72
2021/05/03 11:24:34;;;;;;;2.17;1.40;;;;;;;16.62;39.03;98819.88;1792852;80;21185;-73
2021/05/03 11:27:10;;;;;;;7.95;1.80;;;;;;;16.71;37.20;98827.96;1804229;78;21391;-72
2021/05/03 11:32:14;;;;;;;6.12;1.50;;;;;;;16.62;36.49;98839.87;1806237;79;20998;-70
2021/05/03 11:34:54;;;;;;;2.15;1.30;;;;;;;16.58;37.05;98832.88;1813543;78;20939;-71
2021/05/03 11:37:29;;;;;;;1.35;1.10;;;;;;;16.64;36.38;98840.30;1821555;78;21121;-71
2021/05/03 11:45:28;;;;;;;7.47;1.70;;;;;;;16.97;37.80;98829.88;1826906;78;20978;-71
2021/05/03 11:47:59;;;;;;;2.33;1.40;;;;;;;17.46;37.74;98829.69;1833252;76;21184;-71
2021/05/03 11:50:29;;;;;;;2.87;1.60;;;;;;;17.76;36.66;98814.39;1826695;78;21204;-71
2021/05/03 11:52:59;;;;;;;8.08;2.10;;;;;;;17.88;36.76;98817.48;1826191;78;20994;-70
2021/05/03 11:55:26;;;;;;;7.12;1.98;;;;;;;18.05;37.29;98816.24;1826392;78;21121;-72
2021/05/03 11:57:54;;;;;;;4.55;1.42;;;;;;;18.26;34.98;98820.39;1845721;77;20979;-71
2021/05/03 12:00:24;;;;;;;3.60;1.60;;;;;;;18.33;35.42;98821.84;1859595;77;23547;-71
2021/05/03 12:03:07;;;;;;;5.35;1.82;;;;;;;18.13;34.93;98820.68;1821438;78;21049;-71
2021/05/03 12:05:35;;;;;;;5.30;2.52;;;;;;;17.82;36.21;98825.36;1804672;78;21055;-72
2021/05/03 12:08:16;;;;;;;3.22;1.42;;;;;;;17.90;35.92;98823.45;1800126;78;21120;-72
2021/05/03 12:10:43;;;;;;;4.20;1.77;;;;;;;18.19;34.92;98843.94;1822683;78;21040;-72
2021/05/03 12:13:15;;;;;;;2.67;1.80;;;;;;;18.22;35.82;98828.69;1822861;78;21093;-72